N66ZG RJGG-RPLL
Flight info
| Callsign | N66ZG |
|---|---|
| Flight time | N/A |
| Altitude | 38000 |
| Route | KEC Z262 ALUYO Z26 TONAR Y525 ONC KXC Y62 MJC B462 LAO M646 SANRO W4 NABAL NABAL5R |
| Aircraft | GLF6/M-SFGHIRWXY/S |
Departure
| Time | N/A |
|---|---|
| Airport | Chubu Centrair International Airport (RJGG) |
Arrival
| Time | 2026-05-04 14:47 |
|---|---|
| Airport | Ninoy Aquino International Airport (RPLL) |
| Time | Latitude | Longitude | Altitude | Speed | Heading |
|---|---|---|---|---|---|
| 2026-05-04 14:25 | 15.33885 | 120.59658 | 12922 ft | 314 kts | 150° |
| 2026-05-04 14:25 | 15.31988 | 120.60705 | 12495 ft | 310 kts | 150° |
| 2026-05-04 14:26 | 15.30078 | 120.61758 | 12060 ft | 306 kts | 150° |
| 2026-05-04 14:26 | 15.28216 | 120.62786 | 11632 ft | 303 kts | 150° |
| 2026-05-04 14:26 | 15.26343 | 120.63819 | 11198 ft | 301 kts | 150° |
| 2026-05-04 14:26 | 15.24508 | 120.64831 | 10770 ft | 298 kts | 150° |
| 2026-05-04 14:27 | 15.22663 | 120.65848 | 10337 ft | 296 kts | 150° |
| 2026-05-04 14:27 | 15.20843 | 120.66852 | 9907 ft | 294 kts | 150° |
| 2026-05-04 14:27 | 15.19038 | 120.67847 | 9446 ft | 294 kts | 150° |
| 2026-05-04 14:27 | 15.17241 | 120.68836 | 8975 ft | 294 kts | 150° |
| 2026-05-04 14:28 | 15.15445 | 120.69827 | 8503 ft | 294 kts | 150° |
| 2026-05-04 14:28 | 15.13620 | 120.70832 | 8024 ft | 294 kts | 150° |
| 2026-05-04 14:28 | 15.11828 | 120.71819 | 7555 ft | 294 kts | 150° |
| 2026-05-04 14:28 | 15.10051 | 120.72797 | 7288 ft | 285 kts | 150° |
| 2026-05-04 14:29 | 15.06558 | 120.74720 | 7093 ft | 284 kts | 150° |
| 2026-05-04 14:29 | 15.03708 | 120.76288 | 6939 ft | 284 kts | 150° |
| 2026-05-04 14:30 | 15.01960 | 120.77250 | 6845 ft | 284 kts | 150° |
| 2026-05-04 14:30 | 15.00416 | 120.78099 | 6763 ft | 283 kts | 150° |
| 2026-05-04 14:31 | 14.96324 | 120.80349 | 6559 ft | 281 kts | 150° |
| 2026-05-04 14:32 | 14.92512 | 120.81037 | 6561 ft | 285 kts | 182° |
| 2026-05-04 14:32 | 14.90526 | 120.80834 | 6563 ft | 285 kts | 186° |
| 2026-05-04 14:32 | 14.88552 | 120.80538 | 6563 ft | 285 kts | 188° |
| 2026-05-04 14:32 | 14.86600 | 120.80195 | 6562 ft | 285 kts | 189° |
| 2026-05-04 14:33 | 14.84626 | 120.79821 | 6562 ft | 285 kts | 189° |
| 2026-05-04 14:33 | 14.82682 | 120.79439 | 6499 ft | 286 kts | 189° |
| 2026-05-04 14:33 | 14.80725 | 120.79047 | 6428 ft | 285 kts | 190° |
| 2026-05-04 14:33 | 14.78772 | 120.78651 | 6357 ft | 285 kts | 190° |
| 2026-05-04 14:34 | 14.76810 | 120.78252 | 6285 ft | 284 kts | 190° |
| 2026-05-04 14:34 | 14.74852 | 120.77853 | 6213 ft | 284 kts | 190° |
| 2026-05-04 14:34 | 14.72927 | 120.77460 | 6143 ft | 283 kts | 190° |
| 2026-05-04 14:34 | 14.70997 | 120.77066 | 6071 ft | 283 kts | 190° |
| 2026-05-04 14:35 | 14.69048 | 120.76668 | 5998 ft | 282 kts | 190° |
| 2026-05-04 14:35 | 14.67128 | 120.76276 | 5926 ft | 282 kts | 190° |
| 2026-05-04 14:35 | 14.65199 | 120.75883 | 5853 ft | 280 kts | 190° |
| 2026-05-04 14:35 | 14.63314 | 120.75498 | 5772 ft | 266 kts | 190° |
| 2026-05-04 14:36 | 14.61528 | 120.75133 | 5691 ft | 258 kts | 189° |
| 2026-05-04 14:36 | 14.59762 | 120.74773 | 5619 ft | 257 kts | 189° |
| 2026-05-04 14:36 | 14.58006 | 120.74415 | 5551 ft | 258 kts | 189° |
| 2026-05-04 14:36 | 14.56246 | 120.74056 | 5481 ft | 257 kts | 189° |
| 2026-05-04 14:37 | 14.54470 | 120.73694 | 5411 ft | 257 kts | 189° |
| 2026-05-04 14:37 | 14.52716 | 120.73336 | 5341 ft | 257 kts | 189° |
| 2026-05-04 14:37 | 14.50953 | 120.72977 | 5271 ft | 257 kts | 189° |
| 2026-05-04 14:37 | 14.49204 | 120.72620 | 5201 ft | 256 kts | 189° |
| 2026-05-04 14:38 | 14.47452 | 120.72263 | 5132 ft | 256 kts | 189° |
| 2026-05-04 14:38 | 14.45701 | 120.71905 | 5062 ft | 256 kts | 189° |
| 2026-05-04 14:38 | 14.43954 | 120.71550 | 5011 ft | 248 kts | 189° |
| 2026-05-04 14:38 | 14.42310 | 120.71214 | 5002 ft | 235 kts | 189° |
| 2026-05-04 14:39 | 14.40697 | 120.71101 | 5003 ft | 223 kts | 169° |
| 2026-05-04 14:39 | 14.39227 | 120.71410 | 5006 ft | 210 kts | 165° |
| 2026-05-04 14:39 | 14.37888 | 120.71922 | 5001 ft | 204 kts | 140° |
| 2026-05-04 14:40 | 14.35920 | 120.74021 | 5057 ft | 203 kts | 122° |
| 2026-05-04 14:40 | 14.35694 | 120.75379 | 4991 ft | 192 kts | 76° |
| 2026-05-04 14:40 | 14.36352 | 120.76566 | 5001 ft | 191 kts | 56° |
| 2026-05-04 14:40 | 14.37108 | 120.77711 | 4782 ft | 191 kts | 58° |
| 2026-05-04 14:41 | 14.37811 | 120.78852 | 4563 ft | 189 kts | 59° |
| 2026-05-04 14:41 | 14.38500 | 120.80000 | 4338 ft | 188 kts | 60° |
| 2026-05-04 14:41 | 14.39839 | 120.82314 | 3866 ft | 186 kts | 60° |
| 2026-05-04 14:42 | 14.41140 | 120.84605 | 3384 ft | 185 kts | 60° |
| 2026-05-04 14:42 | 14.41791 | 120.85761 | 3139 ft | 185 kts | 60° |
| 2026-05-04 14:42 | 14.42434 | 120.86906 | 2904 ft | 185 kts | 60° |
| 2026-05-04 14:43 | 14.43069 | 120.88036 | 2669 ft | 181 kts | 60° |
| 2026-05-04 14:43 | 14.43693 | 120.89150 | 2482 ft | 167 kts | 60° |
| 2026-05-04 14:43 | 14.44256 | 120.90156 | 2252 ft | 160 kts | 60° |
| 2026-05-04 14:43 | 14.44815 | 120.91155 | 2034 ft | 159 kts | 60° |
| 2026-05-04 14:44 | 14.45367 | 120.92139 | 1818 ft | 156 kts | 60° |
| 2026-05-04 14:44 | 14.45866 | 120.93031 | 1612 ft | 131 kts | 60° |
| 2026-05-04 14:44 | 14.46290 | 120.93786 | 1422 ft | 115 kts | 61° |
| 2026-05-04 14:44 | 14.46695 | 120.94495 | 1224 ft | 115 kts | 60° |
| 2026-05-04 14:45 | 14.47112 | 120.95200 | 1036 ft | 115 kts | 60° |
| 2026-05-04 14:45 | 14.47535 | 120.95911 | 917 ft | 117 kts | 61° |
| 2026-05-04 14:45 | 14.47968 | 120.96646 | 787 ft | 119 kts | 62° |
| 2026-05-04 14:45 | 14.48382 | 120.97381 | 672 ft | 119 kts | 64° |
| 2026-05-04 14:46 | 14.48781 | 120.98131 | 541 ft | 120 kts | 67° |
| 2026-05-04 14:46 | 14.49173 | 120.98892 | 373 ft | 119 kts | 69° |
| 2026-05-04 14:46 | 14.49572 | 120.99633 | 215 ft | 118 kts | 63° |
| 2026-05-04 14:46 | 14.49985 | 121.00365 | 95 ft | 116 kts | 64° |
| 2026-05-04 14:47 | 14.50350 | 121.01035 | 81 ft | 89 kts | 61° |
| 2026-05-04 14:47 | 14.50591 | 121.01468 | 81 ft | 45 kts | 59° |
| 2026-05-04 14:47 | 14.50710 | 121.01660 | 81 ft | 25 kts | 48° |
| 2026-05-04 14:47 | 14.50818 | 121.01761 | 81 ft | 14 kts | 38° |
| 2026-05-04 14:48 | 14.50882 | 121.01787 | 81 ft | 7 kts | 338° |
| 2026-05-04 14:48 | 14.50927 | 121.01749 | 81 ft | 9 kts | 315° |
| 2026-05-04 14:48 | 14.50982 | 121.01694 | 81 ft | 12 kts | 315° |
| 2026-05-04 14:48 | 14.51048 | 121.01628 | 81 ft | 13 kts | 316° |
| 2026-05-04 14:49 | 14.51114 | 121.01559 | 81 ft | 13 kts | 313° |
| 2026-05-04 14:49 | 14.51180 | 121.01489 | 81 ft | 13 kts | 315° |
| 2026-05-04 14:49 | 14.51237 | 121.01430 | 81 ft | 8 kts | 318° |
| 2026-05-04 14:49 | 14.51282 | 121.01430 | 81 ft | 6 kts | 36° |
| 2026-05-04 14:50 | 14.51285 | 121.01433 | 81 ft | 0 kts | 38° |
| 2026-05-04 14:52 | 14.51286 | 121.01433 | 81 ft | 0 kts | 39° |
| 2026-05-04 14:52 | 14.51301 | 121.01451 | 81 ft | 7 kts | 51° |
| 2026-05-04 14:52 | 14.51336 | 121.01495 | 81 ft | 7 kts | 51° |
| 2026-05-04 14:53 | 14.51369 | 121.01538 | 81 ft | 7 kts | 45° |
| 2026-05-04 14:53 | 14.51411 | 121.01532 | 81 ft | 7 kts | 314° |
| 2026-05-04 14:53 | 14.51456 | 121.01485 | 81 ft | 11 kts | 315° |
| 2026-05-04 14:53 | 14.51529 | 121.01411 | 81 ft | 18 kts | 315° |
| 2026-05-04 14:54 | 14.51628 | 121.01308 | 81 ft | 20 kts | 314° |
| 2026-05-04 14:54 | 14.51727 | 121.01204 | 81 ft | 20 kts | 315° |
| 2026-05-04 14:54 | 14.51826 | 121.01102 | 81 ft | 19 kts | 315° |
| 2026-05-04 14:54 | 14.51922 | 121.01003 | 81 ft | 19 kts | 315° |
| 2026-05-04 14:55 | 14.52018 | 121.00904 | 81 ft | 19 kts | 315° |
| 2026-05-04 14:55 | 14.52111 | 121.00808 | 81 ft | 18 kts | 315° |
| 2026-05-04 14:55 | 14.52135 | 121.00783 | 81 ft | 0 kts | 314° |
| 2026-05-04 14:57 | 14.52141 | 121.00776 | 81 ft | 3 kts | 314° |
| 2026-05-04 14:57 | 14.52173 | 121.00754 | 81 ft | 8 kts | 355° |
| 2026-05-04 14:58 | 14.52236 | 121.00776 | 81 ft | 10 kts | 356° |
| 2026-05-04 14:58 | 14.52313 | 121.00703 | 81 ft | 17 kts | 315° |
| 2026-05-04 14:58 | 14.52401 | 121.00614 | 81 ft | 17 kts | 315° |
| 2026-05-04 14:58 | 14.52488 | 121.00523 | 81 ft | 17 kts | 314° |
| 2026-05-04 14:59 | 14.52543 | 121.00466 | 81 ft | 6 kts | 317° |
| 2026-05-04 14:59 | 14.52573 | 121.00459 | 81 ft | 4 kts | 22° |
| 2026-05-04 14:59 | 14.52608 | 121.00489 | 81 ft | 4 kts | 18° |